Time;durP1;ratioP1;P1;durP2;ratioP2;P2;SDS_P1;SDS_P2;PMS_P1;PMS_P2;Temp;Humidity;BMP_temperature;BMP_pressure;BME280_temperature;BME280_humidity;BME280_pressure;Samples;Min_cycle;Max_cycle;Signal;HPM_P1;HPM_P2
2023/07/01 00:02:01;;;;;;;4.65;3.15;;;18.60;65.90;;;;;;5032200;28;20423;-77
2023/07/01 00:04:28;;;;;;;3.75;3.05;;;18.60;65.50;;;;;;5036720;28;20426;-75
2023/07/01 00:06:56;;;;;;;4.03;3.38;;;18.50;65.70;;;;;;5042393;28;20931;-74
2023/07/01 00:09:23;;;;;;;3.72;3.05;;;18.60;67.00;;;;;;5058198;28;20694;-77
2023/07/01 00:11:50;;;;;;;4.43;3.00;;;18.60;66.50;;;;;;5064002;28;20429;-75
2023/07/01 00:14:18;;;;;;;3.53;2.97;;;18.60;67.40;;;;;;5038206;28;20426;-76
2023/07/01 00:16:44;;;;;;;2.97;2.67;;;18.60;67.00;;;;;;5032386;28;20916;-76
2023/07/01 00:19:11;;;;;;;4.75;2.85;;;18.60;67.40;;;;;;5043771;28;20421;-76
2023/07/01 00:21:38;;;;;;;3.65;2.90;;;18.70;67.70;;;;;;5043884;28;20436;-75
2023/07/01 00:24:05;;;;;;;3.70;2.60;;;18.60;66.30;;;;;;5059361;28;20800;-76
2023/07/01 00:26:32;;;;;;;5.05;2.75;;;18.60;65.80;;;;;;5061219;28;20451;-75
2023/07/01 00:28:58;;;;;;;2.93;2.63;;;18.60;65.70;;;;;;5037075;28;20423;-75
2023/07/01 00:31:27;;;;;;;4.22;2.50;;;18.60;65.80;;;;;;5043986;28;20936;-75
2023/07/01 00:33:54;;;;;;;3.28;2.70;;;18.60;66.30;;;;;;5045253;28;20417;-77
2023/07/01 00:36:20;;;;;;;4.70;2.90;;;18.60;66.50;;;;;;5037503;28;20429;-75
2023/07/01 00:38:47;;;;;;;3.00;2.47;;;18.60;67.70;;;;;;5061228;28;20504;-77
2023/07/01 00:41:17;;;;;;;3.40;3.10;;;18.50;67.80;;;;;;5056824;28;20438;-75
2023/07/01 00:43:44;;;;;;;3.10;2.80;;;18.50;68.20;;;;;;5060250;28;20420;-76
2023/07/01 00:46:10;;;;;;;2.97;2.77;;;18.50;68.70;;;;;;5046296;28;20447;-77
2023/07/01 00:48:41;;;;;;;2.60;2.40;;;18.50;68.40;;;;;;5045815;28;20423;-77
2023/07/01 00:51:08;;;;;;;4.80;2.80;;;18.50;67.10;;;;;;5050416;28;20433;-75
2023/07/01 00:53:35;;;;;;;3.72;2.63;;;18.50;67.30;;;;;;5060304;28;20442;-77
2023/07/01 00:56:03;;;;;;;2.30;2.10;;;18.50;65.80;;;;;;5061332;28;20791;-75
2023/07/01 00:58:30;;;;;;;3.50;2.60;;;18.40;67.50;;;;;;5046584;28;20440;-75
2023/07/01 01:00:59;;;;;;;3.78;2.40;;;18.50;66.00;;;;;;5029851;28;20419;-76
2023/07/01 01:03:42;;;;;;;3.40;2.30;;;18.50;66.00;;;;;;5040027;28;20475;-75
2023/07/01 01:06:17;;;;;;;3.83;2.50;;;18.50;66.70;;;;;;5058744;28;20431;-77
2023/07/01 01:08:55;;;;;;;4.13;2.70;;;18.50;66.60;;;;;;5059872;28;20453;-76
2023/07/01 01:11:26;;;;;;;3.97;2.40;;;18.50;65.80;;;;;;5052299;28;20424;-76
2023/07/01 01:13:54;;;;;;;2.70;2.15;;;18.50;65.70;;;;;;5044620;28;20433;-77
2023/07/01 01:16:21;;;;;;;2.85;2.40;;;18.50;66.70;;;;;;5049180;28;20441;-77
2023/07/01 01:18:51;;;;;;;2.40;2.10;;;18.50;67.20;;;;;;5052130;28;20420;-76
2023/07/01 01:21:19;;;;;;;2.70;2.05;;;18.50;65.70;;;;;;5045194;28;20441;-77
2023/07/01 01:23:53;;;;;;;2.50;2.30;;;18.50;65.20;;;;;;5066662;28;20452;-77
2023/07/01 01:26:22;;;;;;;2.90;2.03;;;18.50;64.90;;;;;;5050191;28;20618;-74
2023/07/01 01:28:51;;;;;;;3.30;2.20;;;18.50;65.80;;;;;;5050426;28;20441;-77
2023/07/01 01:31:19;;;;;;;2.50;2.10;;;18.50;65.20;;;;;;5040453;28;20444;-76
2023/07/01 01:33:48;;;;;;;3.30;2.20;;;18.50;65.40;;;;;;5051984;28;20521;-75
2023/07/01 01:36:22;;;;;;;3.35;2.50;;;18.40;65.00;;;;;;5068174;28;20435;-75
2023/07/01 01:38:50;;;;;;;5.03;2.35;;;18.40;65.10;;;;;;5072271;28;20530;-74
2023/07/01 01:41:21;;;;;;;2.53;2.30;;;18.40;64.80;;;;;;5075202;28;20417;-76
2023/07/01 01:43:56;;;;;;;4.10;2.30;;;18.40;65.10;;;;;;5066081;28;20417;-76
2023/07/01 01:46:25;;;;;;;3.60;2.30;;;18.40;65.30;;;;;;5051166;28;21008;-75
2023/07/01 01:48:55;;;;;;;3.20;2.40;;;18.30;65.10;;;;;;5045335;28;20425;-76
2023/07/01 01:51:23;;;;;;;2.22;2.03;;;18.30;65.40;;;;;;5055252;28;20430;-74
2023/07/01 01:53:52;;;;;;;3.33;2.10;;;18.30;65.70;;;;;;5060921;28;20853;-77
2023/07/01 01:56:20;;;;;;;2.60;2.40;;;18.30;67.00;;;;;;5047024;28;20432;-76
2023/07/01 01:58:48;;;;;;;2.75;2.30;;;18.30;66.20;;;;;;5072981;28;20518;-73
2023/07/01 02:01:16;;;;;;;2.97;2.50;;;18.20;66.10;;;;;;5057678;28;21285;-75
2023/07/01 02:03:44;;;;;;;2.63;2.30;;;18.20;67.00;;;;;;5047713;28;20425;-75
2023/07/01 02:06:11;;;;;;;3.00;2.50;;;18.20;66.60;;;;;;5039415;28;20431;-77
2023/07/01 02:08:38;;;;;;;2.70;2.30;;;18.20;66.30;;;;;;5051403;28;20437;-74
2023/07/01 02:11:04;;;;;;;3.22;2.40;;;18.20;66.40;;;;;;5049240;28;20421;-74
2023/07/01 02:13:31;;;;;;;3.97;2.60;;;18.20;66.50;;;;;;5041493;28;20907;-75
2023/07/01 02:15:58;;;;;;;3.03;2.47;;;18.20;66.60;;;;;;5036161;28;20430;-75
2023/07/01 02:18:27;;;;;;;3.78;2.40;;;18.20;66.60;;;;;;5048457;28;20421;-77
2023/07/01 02:20:53;;;;;;;2.65;2.42;;;18.20;66.20;;;;;;5043207;28;20437;-75
2023/07/01 02:23:20;;;;;;;3.30;2.30;;;18.20;66.40;;;;;;5052973;28;20443;-75
2023/07/01 02:25:47;;;;;;;3.95;2.90;;;18.20;66.40;;;;;;5058940;28;20428;-74
2023/07/01 02:28:14;;;;;;;3.38;2.22;;;18.20;65.80;;;;;;5048982;28;20429;-76
2023/07/01 02:30:41;;;;;;;3.58;2.53;;;18.20;65.50;;;;;;5043256;28;20462;-76
2023/07/01 02:33:07;;;;;;;2.47;2.20;;;18.30;64.70;;;;;;5035013;28;20790;-76
2023/07/01 02:35:35;;;;;;;2.67;2.35;;;18.30;64.80;;;;;;5033266;28;20427;-76
2023/07/01 02:38:02;;;;;;;3.60;2.33;;;18.20;65.80;;;;;;5053701;28;20432;-76
2023/07/01 02:40:29;;;;;;;3.70;2.20;;;18.20;65.30;;;;;;5055203;28;20414;-76
2023/07/01 02:42:55;;;;;;;3.28;2.30;;;18.20;65.20;;;;;;5047103;28;20440;-75
2023/07/01 02:45:22;;;;;;;3.20;2.20;;;18.30;64.40;;;;;;5035751;28;20785;-77
2023/07/01 02:47:49;;;;;;;2.63;2.10;;;18.20;64.50;;;;;;5044367;28;20442;-75
2023/07/01 02:50:16;;;;;;;2.80;2.10;;;18.20;64.70;;;;;;5031131;28;20897;-75
2023/07/01 02:52:44;;;;;;;3.10;2.30;;;18.30;64.10;;;;;;5051654;28;20432;-76
2023/07/01 02:55:11;;;;;;;2.53;2.15;;;18.20;64.20;;;;;;5052750;28;20443;-75
2023/07/01 02:57:37;;;;;;;2.40;2.10;;;18.30;65.40;;;;;;5042313;28;20476;-76
2023/07/01 03:00:10;;;;;;;2.63;2.40;;;18.30;64.40;;;;;;5032909;28;20815;-75
2023/07/01 03:02:37;;;;;;;3.47;2.50;;;18.30;64.50;;;;;;5039656;28;20433;-75
2023/07/01 03:05:05;;;;;;;3.30;2.38;;;18.30;64.00;;;;;;5030812;28;20438;-76
2023/07/01 03:07:31;;;;;;;2.67;1.92;;;18.30;64.00;;;;;;5047298;28;20536;-77
2023/07/01 03:09:59;;;;;;;2.20;2.00;;;18.30;64.60;;;;;;5049576;28;20417;-75
2023/07/01 03:12:26;;;;;;;2.30;2.00;;;18.30;64.10;;;;;;5048982;28;20413;-75
2023/07/01 03:14:53;;;;;;;2.60;2.00;;;18.30;63.80;;;;;;5058100;28;20442;-75
2023/07/01 03:17:19;;;;;;;3.45;2.30;;;18.40;64.50;;;;;;5040905;28;20419;-75
2023/07/01 03:19:46;;;;;;;2.73;2.20;;;18.40;64.30;;;;;;5038145;28;20958;-74
2023/07/01 03:22:13;;;;;;;3.10;2.20;;;18.40;64.10;;;;;;5044720;28;20438;-77
2023/07/01 03:24:39;;;;;;;3.13;2.45;;;18.30;64.00;;;;;;5057033;28;20425;-75
2023/07/01 03:27:08;;;;;;;2.50;2.30;;;18.40;64.00;;;;;;5047860;28;20425;-74
2023/07/01 03:29:34;;;;;;;3.38;2.45;;;18.40;64.30;;;;;;5028820;28;20415;-76
2023/07/01 03:32:03;;;;;;;2.60;2.40;;;18.40;64.20;;;;;;5033999;28;20944;-77
2023/07/01 03:34:30;;;;;;;3.95;2.55;;;18.40;64.50;;;;;;5037755;28;20925;-75
2023/07/01 03:36:56;;;;;;;3.27;2.40;;;18.30;64.80;;;;;;5046235;28;20560;-74
2023/07/01 03:39:23;;;;;;;3.58;2.50;;;18.30;64.50;;;;;;5056005;28;20433;-75
2023/07/01 03:41:50;;;;;;;3.20;2.30;;;18.30;64.30;;;;;;5031242;28;20419;-75
2023/07/01 03:44:18;;;;;;;3.75;2.28;;;18.30;65.20;;;;;;5035149;28;20438;-75
2023/07/01 03:46:44;;;;;;;3.58;2.40;;;18.30;64.20;;;;;;5042997;28;20919;-75
2023/07/01 03:49:11;;;;;;;2.83;2.40;;;18.30;64.00;;;;;;5045697;28;20440;-75
2023/07/01 03:51:38;;;;;;;3.60;2.20;;;18.30;64.60;;;;;;5049052;28;20451;-75
2023/07/01 03:54:05;;;;;;;2.63;2.35;;;18.30;64.20;;;;;;5055502;28;20428;-75
2023/07/01 03:56:32;;;;;;;2.67;2.00;;;18.30;64.50;;;;;;5048547;28;20508;-75
2023/07/01 03:58:59;;;;;;;3.37;2.30;;;18.40;64.20;;;;;;5052594;28;20514;-74
2023/07/01 04:01:27;;;;;;;3.17;1.90;;;18.40;64.80;;;;;;5051132;28;20431;-73
2023/07/01 04:03:55;;;;;;;2.30;2.00;;;18.30;64.80;;;;;;5038080;28;20425;-75
2023/07/01 04:06:22;;;;;;;3.03;2.38;;;18.40;65.00;;;;;;5061581;28;20429;-75
2023/07/01 04:08:54;;;;;;;3.47;2.17;;;18.40;64.60;;;;;;5054704;28;20415;-76
2023/07/01 04:11:21;;;;;;;2.80;2.30;;;18.40;64.70;;;;;;5050870;28;20429;-76
2023/07/01 04:13:48;;;;;;;2.65;2.20;;;18.40;64.80;;;;;;5038871;28;20797;-76
2023/07/01 04:16:15;;;;;;;4.00;2.10;;;18.40;64.90;;;;;;5034777;28;20413;-76
2023/07/01 04:18:43;;;;;;;3.13;2.00;;;18.40;64.10;;;;;;5043038;28;20812;-77
2023/07/01 04:21:09;;;;;;;2.45;1.95;;;18.40;65.00;;;;;;5048997;28;20886;-75
2023/07/01 04:23:36;;;;;;;3.47;2.00;;;18.40;64.20;;;;;;5057409;28;20428;-75
2023/07/01 04:26:03;;;;;;;3.80;2.20;;;18.40;64.50;;;;;;5055364;28;20425;-77
2023/07/01 04:28:30;;;;;;;2.88;1.90;;;18.40;64.00;;;;;;5054919;28;20429;-75
2023/07/01 04:30:56;;;;;;;2.40;2.00;;;18.40;63.80;;;;;;5045790;28;20545;-76
2023/07/01 04:33:23;;;;;;;3.65;2.00;;;18.40;63.80;;;;;;5047426;28;20437;-74
2023/07/01 04:35:51;;;;;;;3.90;2.20;;;18.40;64.90;;;;;;5043035;28;20817;-75
2023/07/01 04:38:18;;;;;;;2.90;2.20;;;18.40;63.80;;;;;;5061090;28;20438;-75
2023/07/01 04:40:45;;;;;;;3.07;2.30;;;18.40;64.00;;;;;;5052749;28;20466;-75
2023/07/01 04:43:12;;;;;;;3.03;1.85;;;18.40;64.40;;;;;;5043085;28;20494;-75
2023/07/01 04:45:42;;;;;;;3.10;2.30;;;18.50;64.00;;;;;;5061902;28;20413;-74
2023/07/01 04:48:08;;;;;;;3.33;2.10;;;18.50;63.50;;;;;;5072021;28;20429;-74
2023/07/01 04:50:35;;;;;;;3.47;2.17;;;18.50;64.00;;;;;;5075201;28;20420;-75
2023/07/01 04:53:03;;;;;;;2.90;2.20;;;18.50;65.20;;;;;;5077358;28;20429;-76
2023/07/01 04:55:30;;;;;;;3.00;2.42;;;18.50;70.60;;;;;;5070605;28;20929;-75
2023/07/01 04:57:57;;;;;;;2.63;2.35;;;18.40;71.90;;;;;;5058512;28;20421;-76
2023/07/01 05:00:24;;;;;;;3.13;2.10;;;18.40;74.70;;;;;;5050267;28;20433;-76
2023/07/01 05:02:50;;;;;;;2.77;2.10;;;18.30;74.10;;;;;;5051176;28;20413;-77
2023/07/01 05:05:17;;;;;;;3.55;2.38;;;18.30;78.10;;;;;;5037431;28;20433;-75
2023/07/01 05:07:44;;;;;;;4.50;2.30;;;18.30;79.00;;;;;;5059348;28;20428;-75
2023/07/01 05:10:12;;;;;;;3.45;2.10;;;18.20;75.10;;;;;;5065059;28;20912;-74
2023/07/01 05:12:39;;;;;;;4.80;2.70;;;18.20;73.70;;;;;;5043110;28;20464;-75
2023/07/01 05:15:06;;;;;;;4.05;2.45;;;18.20;71.90;;;;;;5057705;28;20426;-75
2023/07/01 05:17:33;;;;;;;3.60;2.10;;;18.20;74.40;;;;;;5058919;28;20433;-75
2023/07/01 05:20:00;;;;;;;2.90;2.20;;;18.20;71.70;;;;;;5055378;28;20425;-75
2023/07/01 05:22:26;;;;;;;4.63;2.20;;;18.30;71.20;;;;;;5050556;28;20437;-74
2023/07/01 05:24:53;;;;;;;3.85;2.60;;;18.30;70.50;;;;;;5050685;28;20421;-75
2023/07/01 05:27:21;;;;;;;3.15;2.20;;;18.30;69.70;;;;;;5037272;28;20442;-75
2023/07/01 05:29:48;;;;;;;2.40;2.20;;;18.40;68.90;;;;;;5040186;28;20440;-75
2023/07/01 05:32:15;;;;;;;3.40;2.28;;;18.30;67.50;;;;;;5050017;28;20433;-75
2023/07/01 05:34:41;;;;;;;4.03;2.30;;;18.40;66.00;;;;;;5056050;28;20506;-74
2023/07/01 05:37:08;;;;;;;3.20;2.10;;;18.40;67.40;;;;;;5056353;28;20954;-75
2023/07/01 05:39:35;;;;;;;3.00;2.15;;;18.40;65.90;;;;;;5053522;28;20429;-76
2023/07/01 05:42:02;;;;;;;3.40;2.10;;;18.50;65.90;;;;;;5049822;28;20429;-75
2023/07/01 05:44:30;;;;;;;3.33;2.20;;;18.60;64.90;;;;;;5035145;28;20426;-75
2023/07/01 05:46:57;;;;;;;4.78;2.47;;;18.60;63.70;;;;;;5042897;28;20440;-76
2023/07/01 05:49:23;;;;;;;4.82;1.95;;;18.60;64.60;;;;;;5054645;28;20431;-76
2023/07/01 05:51:50;;;;;;;3.75;2.20;;;18.60;65.10;;;;;;5059985;28;20439;-76
2023/07/01 05:54:17;;;;;;;3.45;2.25;;;18.70;64.90;;;;;;5057077;28;20456;-75
2023/07/01 05:56:44;;;;;;;2.60;2.00;;;18.80;64.80;;;;;;5030236;28;20415;-76
2023/07/01 05:59:11;;;;;;;2.95;2.30;;;18.80;64.30;;;;;;5044350;28;20899;-77
2023/07/01 06:01:40;;;;;;;3.07;2.33;;;18.80;63.70;;;;;;5053204;28;20461;-76
2023/07/01 06:04:06;;;;;;;2.90;1.90;;;18.90;63.50;;;;;;5056101;28;20502;-74
2023/07/01 06:06:33;;;;;;;2.92;2.30;;;18.80;63.20;;;;;;5063580;28;20433;-74
2023/07/01 06:09:00;;;;;;;2.70;2.10;;;18.80;63.70;;;;;;5064377;28;20902;-74
2023/07/01 06:11:27;;;;;;;3.10;2.50;;;18.90;63.90;;;;;;5045867;28;20444;-74
2023/07/01 06:13:53;;;;;;;3.40;1.90;;;19.00;62.90;;;;;;5034271;28;20417;-76
2023/07/01 06:16:20;;;;;;;3.35;1.90;;;19.00;63.50;;;;;;5059844;28;20428;-75
2023/07/01 06:18:48;;;;;;;3.90;2.00;;;19.00;63.30;;;;;;5058430;28;20764;-75
2023/07/01 06:21:15;;;;;;;2.30;1.90;;;19.10;63.90;;;;;;5043215;28;20425;-76
2023/07/01 06:23:42;;;;;;;3.05;2.20;;;19.10;64.60;;;;;;5057625;28;20419;-75
2023/07/01 06:26:09;;;;;;;2.90;2.20;;;19.10;63.90;;;;;;5050507;28;20432;-75
2023/07/01 06:28:35;;;;;;;2.60;2.05;;;19.00;65.10;;;;;;5049042;28;20912;-76
2023/07/01 06:31:02;;;;;;;3.20;2.22;;;19.00;64.50;;;;;;5046908;28;20436;-77
2023/07/01 06:33:29;;;;;;;2.78;2.40;;;18.90;66.40;;;;;;5052509;28;20441;-73
2023/07/01 06:35:57;;;;;;;2.53;2.33;;;18.80;67.30;;;;;;5051542;28;20490;-74
2023/07/01 06:38:24;;;;;;;3.42;2.55;;;18.80;69.20;;;;;;5056239;28;20436;-76
2023/07/01 06:43:16;;;;;;;3.53;2.60;;;18.60;70.40;;;;;;5095907;22;20434;-69
2023/07/01 06:45:44;;;;;;;3.92;2.60;;;18.60;70.30;;;;;;5081644;28;20422;-69
2023/07/01 06:48:10;;;;;;;2.75;2.47;;;18.60;72.70;;;;;;5081718;28;20426;-69
2023/07/01 06:50:37;;;;;;;3.38;2.50;;;18.50;74.40;;;;;;5079283;28;20441;-69
2023/07/01 06:53:05;;;;;;;3.22;2.20;;;18.40;75.70;;;;;;5068725;28;20442;-70
2023/07/01 06:55:33;;;;;;;3.25;2.50;;;18.30;76.30;;;;;;5062637;28;20431;-70
2023/07/01 06:58:02;;;;;;;4.13;2.65;;;18.20;79.60;;;;;;5063124;28;20418;-69
2023/07/01 07:00:30;;;;;;;3.63;2.55;;;18.00;81.40;;;;;;5061502;28;20437;-70
2023/07/01 07:02:57;;;;;;;4.30;2.90;;;17.90;83.40;;;;;;5059749;28;20956;-70
2023/07/01 07:05:23;;;;;;;4.00;2.80;;;17.80;88.00;;;;;;5060825;28;20917;-69
2023/07/01 07:07:50;;;;;;;3.17;2.20;;;17.60;87.10;;;;;;5062727;28;20446;-69
2023/07/01 07:10:18;;;;;;;4.03;2.50;;;17.60;90.00;;;;;;5062556;28;20438;-69
2023/07/01 07:12:45;;;;;;;3.42;3.10;;;17.50;90.40;;;;;;5063334;28;20865;-69
2023/07/01 07:15:12;;;;;;;3.00;2.60;;;17.50;92.50;;;;;;5063361;28;20439;-69
2023/07/01 07:17:38;;;;;;;3.67;2.35;;;17.50;92.70;;;;;;5067481;28;20424;-68
2023/07/01 07:20:06;;;;;;;3.83;2.65;;;17.50;92.40;;;;;;5061127;28;20765;-69
2023/07/01 07:22:33;;;;;;;2.88;2.60;;;17.40;92.70;;;;;;5071785;28;20534;-68
2023/07/01 07:25:01;;;;;;;4.05;2.50;;;17.40;92.90;;;;;;5062136;28;20507;-68
2023/07/01 07:27:29;;;;;;;3.70;3.03;;;17.30;93.00;;;;;;5062948;28;20427;-69
2023/07/01 07:29:55;;;;;;;3.10;2.80;;;17.30;93.90;;;;;;5062305;28;20904;-68
2023/07/01 07:32:22;;;;;;;3.40;3.00;;;17.30;95.10;;;;;;5062710;28;20432;-69
2023/07/01 07:34:49;;;;;;;3.80;2.90;;;17.40;94.50;;;;;;5074119;28;20431;-68
2023/07/01 07:37:15;;;;;;;5.00;3.00;;;17.40;95.60;;;;;;5061891;28;20680;-69
2023/07/01 07:39:42;;;;;;;3.33;3.00;;;17.50;95.10;;;;;;5068375;28;20516;-69
2023/07/01 07:42:09;;;;;;;3.60;2.90;;;17.60;94.30;;;;;;5063036;28;20451;-69
2023/07/01 07:44:37;;;;;;;5.10;3.17;;;17.60;93.90;;;;;;5063755;28;20442;-68
2023/07/01 07:47:04;;;;;;;3.35;2.50;;;17.70;94.20;;;;;;5059891;28;20496;-68
2023/07/01 07:49:31;;;;;;;3.42;2.70;;;17.70;94.60;;;;;;5060567;28;20434;-69
2023/07/01 07:52:00;;;;;;;4.28;3.13;;;17.80;94.90;;;;;;5059305;28;20449;-69
2023/07/01 07:54:27;;;;;;;3.20;2.60;;;17.90;95.10;;;;;;5063264;28;20415;-69
2023/07/01 07:56:59;;;;;;;2.55;2.35;;;18.00;94.60;;;;;;5063202;28;20446;-68
2023/07/01 07:59:26;;;;;;;2.40;2.20;;;18.00;93.60;;;;;;5062194;28;20411;-70
2023/07/01 08:01:56;;;;;;;2.53;2.30;;;18.00;94.00;;;;;;5062215;28;20910;-70
2023/07/01 08:04:23;;;;;;;2.60;2.27;;;18.00;94.80;;;;;;5063810;28;20501;-70
2023/07/01 08:06:50;;;;;;;2.70;2.10;;;18.00;94.60;;;;;;5065133;28;20441;-70
2023/07/01 08:09:17;;;;;;;3.80;2.50;;;18.00;95.00;;;;;;5065916;28;20437;-70
2023/07/01 08:11:43;;;;;;;3.40;2.58;;;17.90;94.00;;;;;;5061470;28;20792;-71
2023/07/01 08:14:10;;;;;;;3.22;2.40;;;18.00;96.10;;;;;;5068113;28;20434;-70
2023/07/01 08:16:38;;;;;;;3.63;2.47;;;18.00;95.30;;;;;;5063008;28;20462;-70
2023/07/01 08:19:06;;;;;;;2.30;1.90;;;18.00;95.60;;;;;;5065257;28;20430;-70
2023/07/01 08:21:35;;;;;;;3.55;2.42;;;17.90;94.40;;;;;;5064137;28;21029;-71
2023/07/01 08:24:02;;;;;;;2.78;2.10;;;17.90;96.00;;;;;;5068884;28;20517;-71
2023/07/01 08:26:29;;;;;;;2.90;2.10;;;18.00;96.30;;;;;;5072709;28;20562;-70
2023/07/01 08:28:56;;;;;;;2.55;2.35;;;17.90;96.30;;;;;;5066238;28;20454;-70
2023/07/01 08:31:22;;;;;;;2.55;1.98;;;17.90;96.60;;;;;;5065405;28;20902;-70
2023/07/01 08:33:49;;;;;;;4.38;2.20;;;17.80;97.10;;;;;;5066924;28;20426;-68
2023/07/01 08:36:17;;;;;;;2.92;2.25;;;17.70;98.40;;;;;;5066016;28;20726;-70
2023/07/01 08:38:44;;;;;;;2.67;2.10;;;17.70;98.20;;;;;;5066356;28;21115;-70
2023/07/01 08:41:15;;;;;;;2.47;2.20;;;17.70;99.40;;;;;;5067228;28;20434;-70
2023/07/01 08:43:43;;;;;;;2.35;2.00;;;17.60;98.10;;;;;;5079052;28;20411;-70
2023/07/01 08:46:12;;;;;;;2.58;1.90;;;17.60;99.20;;;;;;5069288;28;20506;-70
2023/07/01 08:48:39;;;;;;;4.10;2.13;;;17.60;98.80;;;;;;5070367;28;20428;-70
2023/07/01 08:51:13;;;;;;;3.17;1.70;;;17.70;98.20;;;;;;5069189;28;20450;-70
2023/07/01 08:53:43;;;;;;;2.50;1.50;;;17.70;97.30;;;;;;5064909;28;20516;-71
2023/07/01 08:56:10;;;;;;;2.90;1.80;;;17.70;96.10;;;;;;5079022;28;20462;-69
2023/07/01 08:58:39;;;;;;;2.55;1.70;;;17.80;96.50;;;;;;5065461;28;20518;-70
2023/07/01 09:01:06;;;;;;;2.15;1.58;;;17.90;96.90;;;;;;5071897;28;20423;-69
2023/07/01 09:03:36;;;;;;;1.90;1.27;;;17.90;95.80;;;;;;5067717;28;20897;-70
2023/07/01 09:06:05;;;;;;;2.70;1.40;;;18.00;95.90;;;;;;5076565;28;20647;-70
2023/07/01 09:08:32;;;;;;;2.00;1.70;;;18.20;95.70;;;;;;5070550;28;20793;-70
2023/07/01 09:11:00;;;;;;;2.15;1.50;;;18.20;95.20;;;;;;5072677;28;20413;-70
2023/07/01 09:13:27;;;;;;;1.70;1.40;;;18.30;95.70;;;;;;5072074;28;20411;-70
2023/07/01 09:15:54;;;;;;;2.15;1.35;;;18.40;94.20;;;;;;5062878;28;20458;-70
2023/07/01 09:18:23;;;;;;;1.95;1.50;;;18.40;94.90;;;;;;5064839;28;20458;-69
2023/07/01 09:20:50;;;;;;;2.10;1.60;;;18.60;94.60;;;;;;5063727;28;20431;-70
2023/07/01 09:23:27;;;;;;;1.80;1.42;;;18.70;94.80;;;;;;5064853;28;20418;-70
2023/07/01 09:25:54;;;;;;;2.33;1.42;;;18.80;93.70;;;;;;5057495;28;20504;-71
2023/07/01 09:28:31;;;;;;;2.10;1.40;;;18.90;94.00;;;;;;5064245;28;20437;-70
2023/07/01 09:31:00;;;;;;;5.03;2.45;;;18.80;93.20;;;;;;5059385;28;20432;-70
2023/07/01 09:33:27;;;;;;;2.10;1.50;;;18.90;93.80;;;;;;5063265;28;20432;-71
2023/07/01 09:35:57;;;;;;;3.70;1.50;;;18.90;93.70;;;;;;5064243;28;20508;-70
2023/07/01 09:38:24;;;;;;;1.70;1.30;;;18.80;92.90;;;;;;5065724;28;20435;-70
2023/07/01 09:40:50;;;;;;;1.80;1.40;;;18.80;93.70;;;;;;5063387;28;20419;-71
2023/07/01 09:43:19;;;;;;;2.60;1.33;;;18.80;93.50;;;;;;5066671;28;20438;-71
2023/07/01 09:45:57;;;;;;;2.53;1.30;;;18.80;93.30;;;;;;5079446;28;20887;-70
2023/07/01 09:48:24;;;;;;;2.38;1.58;;;18.70;95.20;;;;;;5053414;28;20501;-70
2023/07/01 09:50:52;;;;;;;2.10;1.52;;;18.80;94.60;;;;;;5065592;28;20618;-70
2023/07/01 09:53:22;;;;;;;1.75;1.58;;;18.80;94.90;;;;;;5065270;28;20471;-71
2023/07/01 09:55:50;;;;;;;1.92;1.40;;;18.80;94.40;;;;;;5070581;28;20530;-70
2023/07/01 09:58:17;;;;;;;2.40;1.20;;;18.90;95.50;;;;;;5064640;28;20442;-69
2023/07/01 10:00:46;;;;;;;1.55;1.33;;;18.90;97.20;;;;;;5062610;28;20758;-70
2023/07/01 10:03:15;;;;;;;1.63;1.30;;;18.80;97.30;;;;;;5057832;28;20423;-71
2023/07/01 10:05:44;;;;;;;1.90;1.10;;;18.60;97.60;;;;;;5064617;28;20442;-70
2023/07/01 10:08:10;;;;;;;1.80;1.40;;;18.40;98.50;;;;;;5054456;28;20907;-70
2023/07/01 10:10:37;;;;;;;1.60;1.20;;;18.20;99.70;;;;;;5065838;28;20947;-69
2023/07/01 10:13:05;;;;;;;2.30;1.80;;;18.10;99.90;;;;;;5053301;28;20444;-70
2023/07/01 10:15:35;;;;;;;2.38;1.60;;;18.10;99.90;;;;;;5063689;28;20459;-70
2023/07/01 10:18:01;;;;;;;1.92;1.50;;;18.10;99.90;;;;;;5063515;28;20439;-69
2023/07/01 10:20:31;;;;;;;2.55;1.70;;;18.10;99.90;;;;;;5067006;28;20868;-70
2023/07/01 10:22:59;;;;;;;1.98;1.60;;;18.10;99.90;;;;;;5060376;28;20434;-69
2023/07/01 10:25:33;;;;;;;1.93;1.63;;;18.00;99.90;;;;;;5063066;28;20450;-70
2023/07/01 10:28:07;;;;;;;2.03;1.48;;;18.10;99.90;;;;;;5057312;28;20412;-70
2023/07/01 10:31:11;;;;;;;2.50;1.30;;;18.10;99.90;;;;;;5063150;28;20439;-70
2023/07/01 10:33:57;;;;;;;1.40;0.90;;;18.10;99.90;;;;;;5078253;28;20416;-70
2023/07/01 10:36:25;;;;;;;1.40;1.10;;;18.10;99.90;;;;;;5062239;28;20846;-70
2023/07/01 10:38:53;;;;;;;3.83;1.20;;;18.10;99.90;;;;;;5062722;28;20431;-70
2023/07/01 10:41:51;;;;;;;1.80;1.30;;;18.10;99.90;;;;;;5064876;28;20434;-70
2023/07/01 10:44:23;;;;;;;1.10;0.90;;;18.10;99.90;;;;;;5070419;28;20760;-70
2023/07/01 10:47:17;;;;;;;1.70;0.90;;;18.10;99.90;;;;;;5075318;28;20553;-70
2023/07/01 10:50:04;;;;;;;1.50;0.90;;;18.10;99.90;;;;;;5063086;28;20506;-70
2023/07/01 10:52:33;;;;;;;2.20;1.00;;;18.10;99.90;;;;;;5062001;28;20500;-70
2023/07/01 10:55:02;;;;;;;1.48;0.90;;;18.10;99.90;;;;;;5064900;28;20427;-70
2023/07/01 10:57:29;;;;;;;1.70;1.20;;;18.10;99.90;;;;;;5074016;28;20435;-70
2023/07/01 11:00:29;;;;;;;2.50;1.30;;;18.20;99.90;;;;;;5083413;28;20464;-70
2023/07/01 11:02:56;;;;;;;1.60;1.10;;;18.30;99.90;;;;;;5053423;28;20443;-70
2023/07/01 11:05:28;;;;;;;1.60;1.15;;;18.40;99.90;;;;;;5077369;28;20461;-69
2023/07/01 11:08:06;;;;;;;1.48;1.10;;;18.40;99.90;;;;;;5062137;28;20938;-69
2023/07/01 11:10:34;;;;;;;1.73;1.07;;;18.40;99.90;;;;;;5063124;28;20436;-70
2023/07/01 11:13:01;;;;;;;1.23;0.88;;;18.40;99.90;;;;;;5072899;28;20420;-70
2023/07/01 11:15:28;;;;;;;2.35;1.15;;;18.40;99.90;;;;;;5066322;28;20443;-70
2023/07/01 11:17:56;;;;;;;1.50;1.10;;;18.40;99.90;;;;;;5066452;28;20435;-70
2023/07/01 11:20:22;;;;;;;1.70;1.10;;;18.40;99.90;;;;;;5066255;28;20556;-69
2023/07/01 11:22:50;;;;;;;1.35;1.10;;;18.40;99.90;;;;;;5062300;28;20431;-69
2023/07/01 11:25:18;;;;;;;1.45;1.17;;;18.30;99.90;;;;;;5063076;28;20436;-69
2023/07/01 11:27:45;;;;;;;1.70;1.30;;;18.20;99.90;;;;;;5074631;28;20437;-70
2023/07/01 11:30:30;;;;;;;1.50;1.40;;;18.20;99.90;;;;;;5082459;28;20772;-70
2023/07/01 11:32:57;;;;;;;1.70;1.42;;;18.20;99.90;;;;;;5071140;28;20434;-70
2023/07/01 11:35:24;;;;;;;2.10;1.60;;;18.20;99.90;;;;;;5062214;28;20897;-71
2023/07/01 11:37:50;;;;;;;1.85;1.65;;;18.20;99.90;;;;;;5064058;28;20535;-70
2023/07/01 11:40:38;;;;;;;1.60;1.48;;;18.20;99.90;;;;;;5065272;28;20408;-71
2023/07/01 11:43:05;;;;;;;1.83;1.30;;;18.20;99.90;;;;;;5066881;28;20506;-70
2023/07/01 11:45:45;;;;;;;1.40;1.20;;;18.00;99.90;;;;;;5067869;28;20864;-70
2023/07/01 11:48:11;;;;;;;1.90;1.70;;;18.00;99.90;;;;;;5067601;28;20435;-70
2023/07/01 11:50:51;;;;;;;1.40;1.30;;;17.90;99.90;;;;;;5067007;28;20423;-70
2023/07/01 11:53:17;;;;;;;1.40;1.02;;;17.90;99.90;;;;;;5061550;28;20492;-69
2023/07/01 11:55:45;;;;;;;1.05;0.80;;;18.00;99.90;;;;;;5068604;28;20411;-70
2023/07/01 11:58:28;;;;;;;1.20;0.90;;;17.90;99.90;;;;;;5066832;28;20415;-70
2023/07/01 12:00:55;;;;;;;1.15;0.90;;;17.80;99.90;;;;;;5065160;28;20461;-70
2023/07/01 12:03:22;;;;;;;1.10;1.00;;;17.80;99.90;;;;;;5066974;28;20427;-70
2023/07/01 12:05:49;;;;;;;1.40;1.00;;;17.90;99.90;;;;;;5065482;28;20587;-70
2023/07/01 12:08:16;;;;;;;1.60;1.10;;;17.90;99.90;;;;;;5063321;28;20486;-70
2023/07/01 12:10:43;;;;;;;1.40;1.10;;;18.00;99.90;;;;;;5065474;28;20423;-70
2023/07/01 12:13:29;;;;;;;1.30;1.00;;;18.00;99.90;;;;;;5066617;28;20751;-70
2023/07/01 12:15:56;;;;;;;2.40;1.40;;;18.00;99.90;;;;;;5067357;28;20800;-70
2023/07/01 12:18:26;;;;;;;2.60;1.40;;;18.10;99.90;;;;;;5079510;28;20446;-70
2023/07/01 12:20:53;;;;;;;1.60;1.27;;;18.20;99.90;;;;;;5061166;28;20430;-71
2023/07/01 12:23:20;;;;;;;2.10;1.40;;;18.30;99.90;;;;;;5066004;28;20536;-70
2023/07/01 12:25:47;;;;;;;1.33;1.00;;;18.40;99.90;;;;;;5065378;28;20446;-70
2023/07/01 12:28:15;;;;;;;1.80;1.10;;;18.40;99.90;;;;;;5079901;28;20440;-70
2023/07/01 12:30:43;;;;;;;1.20;1.05;;;18.40;99.90;;;;;;5065331;28;20438;-70
2023/07/01 12:33:10;;;;;;;2.55;1.00;;;18.50;99.90;;;;;;5066219;28;20423;-70
2023/07/01 12:35:36;;;;;;;1.50;1.00;;;18.40;99.90;;;;;;5065837;28;20439;-70
2023/07/01 12:38:04;;;;;;;1.20;1.10;;;18.50;99.90;;;;;;5060535;28;20454;-70
2023/07/01 12:40:31;;;;;;;1.40;1.20;;;18.50;99.90;;;;;;5066075;28;20420;-70
2023/07/01 12:42:58;;;;;;;3.00;1.50;;;18.60;99.90;;;;;;5092576;22;20432;-77
2023/07/01 12:45:26;;;;;;;2.20;1.50;;;18.70;99.90;;;;;;5085830;28;20433;-74
2023/07/01 12:47:54;;;;;;;1.50;1.30;;;18.60;99.90;;;;;;5087586;28;20434;-77
2023/07/01 12:50:21;;;;;;;1.55;1.30;;;18.70;99.90;;;;;;5089716;28;20938;-75
2023/07/01 12:52:52;;;;;;;1.50;1.30;;;18.60;99.90;;;;;;5091441;28;20437;-75
2023/07/01 12:55:19;;;;;;;2.38;1.63;;;18.60;99.90;;;;;;5071948;28;20438;-75
2023/07/01 12:57:46;;;;;;;2.45;1.92;;;18.60;99.90;;;;;;5078049;28;20425;-76